Salisbury Ocean City Wicomico Regional Airport

Date: 2024-06-11 05:24:00Z

Type: SPECI

Weather: Heavy Thunderstorms, Very Gusty Winds

Winds: 290° at 23 kts, Gusting to 40 kts

Visibility: 1.25

Ceiling (AGL FT): Clouds BROKEN at 3200, BROKEN at 4700, OVERCAST at 7500, FEW at 2000

RAW METAR: KSBY 110524Z AUTO 29023G40KT 1 1/4SM +TSRA BR BKN032 BKN047 OVC075 16/14 A2986 RMK AO2 PK WND 28041/0508 LTG DSNT S AND SW RAB09 TSB16 PRESRR P0025 T01610144

project-image